Youngstown, NY

12:55 PM EST on December 25, 2014 (GMT -0500)
Buffalo Niagara International | Change Station
CLOSE
Current Station
Airport
Location: Buffalo,
Elevation: 702 ft
Nearby Weather Stations

Elev 702 ft 42.94 °N, 78.74 °W | Updated 1 hour ago

Overcast
Overcast
40 °F
Feels Like 30 °F
N
22
Wind Variable Wind from West
Gusts 32 mph

Today
High -- | Low -- °F
--% Chance of Precip.
Yesterday
High -- | Low -- °F
Precip. -- in
7:46 AM 4:45 PM
Waxing Crescent, 18% visible
Pressure 29.80 in
Visibility 10.0 miles
Clouds Scattered Clouds 1600 ft
Overcast 2600 ft
Windchill 30 °F
Dew Point 34 °F
Humidity 79%
Rainfall 0.01 in
Snow Depth Not available.
UV 1 out of 12
Pollen .10 out of 12
Air Quality Not available.
Flu Activity Not available.
METAR KBUF 251654Z 26019G28KT 10SM SCT016 OVC026 04/01 A2978 RMK AO2 PK WND 24032/1619 SLP090 T00440011

More Conditions Fewer Conditions

Pressure 29.80 in
Visibility 10.0 miles
Clouds Scattered Clouds 1600 ft
Overcast 2600 ft
Windchill 30 °F
Dew Point 34 °F
Humidity 79%
Rainfall 0.01 in
Snow Depth Not available.
UV 1 out of 12
Pollen .10 out of 12
Air Quality Not available.
Flu Activity Not available.
METAR KBUF 251654Z 26019G28KT 10SM SCT016 OVC026 04/01 A2978 RMK AO2 PK WND 24032/1619 SLP090 T00440011

More Conditions Fewer Conditions

10-Day Weather Forecast

Almanac

Astronomy

Dec. 25, 2014 Rise Set
Actual Time
Civil Twilight
Nautical Twilight
Astronomical Twilight
Moon
Length of Visible Light
Length of Day
Tomorrow will be .
, % of the Moon is Illuminated

Today's Extremes

State Highs State Lows

Community

WunderPhotos

Upload Photos

1,780,351 photos uploaded!

WunderBlogs® & News

Nearby

Air Quality

  Air Quality AQ Index Pollutant
Not available.

Snow Depth

Station Depth Elevation

Earthquake Activity

City Distance Mag. Time & Date
Minimum magnitude displayed is 2.5.

Coastal Water Temperatures

Place Temperature

Nearby Weather Stations